Time;durP1;ratioP1;P1;durP2;ratioP2;P2;SDS_P1;SDS_P2;PMS_P1;PMS_P2;Temp;Humidity;BMP_temperature;BMP_pressure;BME280_temperature;BME280_humidity;BME280_pressure;Samples;Min_cycle;Max_cycle;Signal;HPM_P1;HPM_P2
2022/05/30 00:01:26;;;;;;;8.10;2.60;;;;;;;;;;5049579;28;20098;-82
2022/05/30 00:03:53;;;;;;;5.53;2.60;;;;;;;;;;5050650;28;20050;-82
2022/05/30 00:06:21;;;;;;;5.65;2.47;;;;;;;;;;5048730;28;20049;-82
2022/05/30 00:08:47;;;;;;;5.18;2.80;;;;;;;;;;5052523;28;20505;-82
2022/05/30 00:11:14;;;;;;;7.13;2.63;;;;;;;;;;5051180;28;20409;-82
2022/05/30 00:13:41;;;;;;;5.55;2.70;;;;;;;;;;5057971;28;20048;-82
2022/05/30 00:16:10;;;;;;;6.97;2.83;;;;;;;;;;5051397;28;20049;-82
2022/05/30 00:18:36;;;;;;;5.18;2.83;;;;;;;;;;5053034;28;20049;-82
2022/05/30 00:21:02;;;;;;;5.82;2.35;;;;;;;;;;5060784;28;20049;-82
2022/05/30 00:23:28;;;;;;;5.47;2.60;;;;;;;;;;5051362;28;20088;-82
2022/05/30 00:25:54;;;;;;;5.13;2.60;;;;;;;;;;5052431;28;20095;-82
2022/05/30 00:28:20;;;;;;;9.27;2.85;;;;;;;;;;5058893;28;20040;-82
2022/05/30 00:30:47;;;;;;;5.13;2.53;;;;;;;;;;5052891;28;20041;-82
2022/05/30 00:33:13;;;;;;;6.05;2.80;;;;;;;;;;5051320;28;20037;-82
2022/05/30 00:35:41;;;;;;;7.40;2.63;;;;;;;;;;5062483;28;20044;-82
2022/05/30 00:38:07;;;;;;;8.82;3.22;;;;;;;;;;5071827;28;20068;-82
2022/05/30 00:40:34;;;;;;;10.27;3.63;;;;;;;;;;5072743;28;20044;-82
2022/05/30 00:43:19;;;;;;;4.65;2.67;;;;;;;;;;5062970;28;20049;-82
2022/05/30 00:45:45;;;;;;;7.57;3.17;;;;;;;;;;5072494;28;20076;-81
2022/05/30 00:48:11;;;;;;;8.60;3.15;;;;;;;;;;5070968;28;20106;-81
2022/05/30 00:50:37;;;;;;;5.05;2.70;;;;;;;;;;5063611;28;20053;-81
2022/05/30 00:53:04;;;;;;;4.05;2.45;;;;;;;;;;5051623;28;20061;-82
2022/05/30 00:55:31;;;;;;;6.50;2.72;;;;;;;;;;5051129;28;20118;-81
2022/05/30 00:57:57;;;;;;;3.33;2.70;;;;;;;;;;5051449;28;20124;-81
2022/05/30 01:00:25;;;;;;;4.32;2.53;;;;;;;;;;5071614;28;20051;-81
2022/05/30 01:08:23;;;;;;;4.65;2.55;;;;;;;;;;5072487;28;20467;-81
2022/05/30 01:10:49;;;;;;;4.43;2.60;;;;;;;;;;5070197;28;20558;-81
2022/05/30 01:13:15;;;;;;;5.50;2.50;;;;;;;;;;5046206;28;20036;-81
2022/05/30 01:15:41;;;;;;;8.55;2.83;;;;;;;;;;5054729;28;20412;-82
2022/05/30 01:18:17;;;;;;;7.10;2.92;;;;;;;;;;5049896;28;20464;-82
2022/05/30 01:21:06;;;;;;;4.45;2.90;;;;;;;;;;5050147;28;20524;-82
2022/05/30 01:23:44;;;;;;;5.72;2.55;;;;;;;;;;5042975;28;20068;-82
2022/05/30 01:26:16;;;;;;;4.90;2.50;;;;;;;;;;5049355;28;20041;-82
2022/05/30 01:28:45;;;;;;;4.97;2.60;;;;;;;;;;5044324;28;20041;-82
2022/05/30 01:31:11;;;;;;;4.95;2.58;;;;;;;;;;5070534;28;20044;-82
2022/05/30 01:33:37;;;;;;;3.92;2.70;;;;;;;;;;5050430;28;20478;-82
2022/05/30 01:36:03;;;;;;;7.80;2.80;;;;;;;;;;5050774;28;20505;-82
2022/05/30 01:38:29;;;;;;;6.30;2.58;;;;;;;;;;5066198;28;20485;-81
2022/05/30 01:40:56;;;;;;;5.15;2.50;;;;;;;;;;5063748;28;20056;-82
2022/05/30 01:43:22;;;;;;;6.05;3.13;;;;;;;;;;5049613;28;20176;-82
2022/05/30 01:45:48;;;;;;;6.50;3.05;;;;;;;;;;5050048;28;20189;-81
2022/05/30 01:48:14;;;;;;;7.82;3.30;;;;;;;;;;5049728;28;20397;-82
2022/05/30 01:50:41;;;;;;;7.25;3.05;;;;;;;;;;5049261;28;20048;-81
2022/05/30 01:53:07;;;;;;;6.68;2.63;;;;;;;;;;5067386;28;20397;-82
2022/05/30 01:55:33;;;;;;;5.80;2.50;;;;;;;;;;5068892;28;20056;-81
2022/05/30 01:57:59;;;;;;;6.95;3.00;;;;;;;;;;5049791;28;20116;-82
2022/05/30 02:00:25;;;;;;;6.28;2.72;;;;;;;;;;5049877;28;20128;-82
2022/05/30 02:02:51;;;;;;;8.75;2.92;;;;;;;;;;5033271;28;20048;-82
2022/05/30 02:05:18;;;;;;;5.30;2.60;;;;;;;;;;5032579;28;20474;-82
2022/05/30 02:07:44;;;;;;;4.47;2.70;;;;;;;;;;5067361;28;20064;-82
2022/05/30 02:10:10;;;;;;;5.65;3.00;;;;;;;;;;5068369;28;20257;-82
2022/05/30 02:12:36;;;;;;;5.30;2.83;;;;;;;;;;5049199;28;20409;-82
2022/05/30 02:15:02;;;;;;;6.72;3.00;;;;;;;;;;5049120;28;20049;-82
2022/05/30 02:17:28;;;;;;;6.13;2.88;;;;;;;;;;5058181;28;20546;-82
2022/05/30 02:19:54;;;;;;;6.38;3.22;;;;;;;;;;5065494;28;20053;-82
2022/05/30 02:22:23;;;;;;;7.28;3.50;;;;;;;;;;5065670;28;20045;-82
2022/05/30 02:24:49;;;;;;;5.25;3.25;;;;;;;;;;5069332;28;20037;-82
2022/05/30 02:27:16;;;;;;;5.85;3.00;;;;;;;;;;5049588;28;20051;-81
2022/05/30 02:29:42;;;;;;;3.88;2.70;;;;;;;;;;5048824;28;20478;-82
2022/05/30 02:32:09;;;;;;;7.10;3.17;;;;;;;;;;5050282;28;20048;-82
2022/05/30 02:37:19;;;;;;;4.45;2.28;;;;;;;;;;5070422;28;20040;-82
2022/05/30 02:39:45;;;;;;;6.68;2.95;;;;;;;;;;5065318;28;20524;-81
2022/05/30 02:42:12;;;;;;;6.13;3.03;;;;;;;;;;5048268;28;21064;-81
2022/05/30 02:44:38;;;;;;;9.90;2.67;;;;;;;;;;5050457;28;20049;-82
2022/05/30 02:47:05;;;;;;;6.03;2.78;;;;;;;;;;5049612;28;20041;-81
2022/05/30 02:49:31;;;;;;;4.90;2.78;;;;;;;;;;5049993;28;20059;-81
2022/05/30 02:51:57;;;;;;;5.80;3.20;;;;;;;;;;5041831;28;20139;-82
2022/05/30 02:54:23;;;;;;;8.55;3.20;;;;;;;;;;5067814;28;20558;-81
2022/05/30 02:56:51;;;;;;;7.35;3.33;;;;;;;;;;5050141;28;20048;-82
2022/05/30 02:59:17;;;;;;;4.75;2.97;;;;;;;;;;5048733;28;20056;-82
2022/05/30 03:01:43;;;;;;;4.82;2.88;;;;;;;;;;5065620;28;20052;-82
2022/05/30 03:04:09;;;;;;;5.43;2.90;;;;;;;;;;5049093;28;20533;-82
2022/05/30 03:06:35;;;;;;;5.38;2.92;;;;;;;;;;5048737;28;20045;-81
2022/05/30 03:09:02;;;;;;;5.25;2.80;;;;;;;;;;5054242;28;20400;-82
2022/05/30 03:11:28;;;;;;;4.32;3.05;;;;;;;;;;5048082;28;20182;-82
2022/05/30 03:13:54;;;;;;;3.72;2.53;;;;;;;;;;5047908;28;20530;-81
2022/05/30 03:16:20;;;;;;;5.35;2.95;;;;;;;;;;5048162;28;20575;-82
2022/05/30 03:18:46;;;;;;;3.83;2.70;;;;;;;;;;5048503;28;20163;-82
2022/05/30 03:21:12;;;;;;;3.45;2.90;;;;;;;;;;5065384;28;20399;-82
2022/05/30 03:23:38;;;;;;;5.68;3.03;;;;;;;;;;5068936;28;20194;-82
2022/05/30 03:26:05;;;;;;;4.78;3.05;;;;;;;;;;5048278;28;20045;-82
2022/05/30 03:28:31;;;;;;;4.88;2.90;;;;;;;;;;5040396;28;20041;-82
2022/05/30 03:30:58;;;;;;;4.72;2.97;;;;;;;;;;5067620;28;20045;-82
2022/05/30 03:33:24;;;;;;;9.10;2.80;;;;;;;;;;5068733;28;20123;-82
2022/05/30 03:35:50;;;;;;;3.58;2.78;;;;;;;;;;5044190;28;20470;-82
2022/05/30 03:38:16;;;;;;;4.88;2.80;;;;;;;;;;5049544;28;20445;-82
2022/05/30 03:40:42;;;;;;;6.65;2.97;;;;;;;;;;5048204;28;20128;-82
2022/05/30 03:43:09;;;;;;;4.05;2.70;;;;;;;;;;5053266;28;20128;-82
2022/05/30 03:45:38;;;;;;;5.93;3.25;;;;;;;;;;5053336;28;20045;-81
2022/05/30 03:48:05;;;;;;;4.15;3.15;;;;;;;;;;5053355;28;20134;-82
2022/05/30 03:50:31;;;;;;;5.70;3.25;;;;;;;;;;5063984;28;20485;-82
2022/05/30 03:53:04;;;;;;;6.68;3.55;;;;;;;;;;5071896;28;20444;-82
2022/05/30 03:55:31;;;;;;;6.38;3.00;;;;;;;;;;5058751;28;20524;-82
2022/05/30 03:57:57;;;;;;;6.32;3.50;;;;;;;;;;5073143;28;20127;-82
2022/05/30 04:00:24;;;;;;;5.10;3.05;;;;;;;;;;5071858;28;20080;-82
2022/05/30 04:02:50;;;;;;;4.43;2.80;;;;;;;;;;5073569;28;20044;-82
2022/05/30 04:05:20;;;;;;;4.55;2.92;;;;;;;;;;5040639;28;20056;-82
2022/05/30 04:07:46;;;;;;;5.13;3.28;;;;;;;;;;5035278;28;20040;-82
2022/05/30 04:10:13;;;;;;;8.93;3.45;;;;;;;;;;5051038;28;20563;-82
2022/05/30 04:12:39;;;;;;;4.43;2.85;;;;;;;;;;5051809;28;20064;-82
2022/05/30 04:15:06;;;;;;;4.28;2.90;;;;;;;;;;5051136;28;20495;-82
2022/05/30 04:17:34;;;;;;;3.97;2.80;;;;;;;;;;5053173;28;20053;-81
2022/05/30 04:20:00;;;;;;;5.00;2.50;;;;;;;;;;5064373;28;20044;-82
2022/05/30 04:22:26;;;;;;;5.05;2.58;;;;;;;;;;5071953;28;20101;-82
2022/05/30 04:24:53;;;;;;;6.93;3.20;;;;;;;;;;5053629;28;20044;-82
2022/05/30 04:27:20;;;;;;;5.82;2.90;;;;;;;;;;5053011;28;20056;-82
2022/05/30 04:29:45;;;;;;;6.43;2.58;;;;;;;;;;5052337;28;20043;-82
2022/05/30 04:32:12;;;;;;;3.83;2.60;;;;;;;;;;5051313;28;20913;-82
2022/05/30 04:34:38;;;;;;;8.60;2.60;;;;;;;;;;5051204;28;20146;-82
2022/05/30 04:37:05;;;;;;;6.13;2.53;;;;;;;;;;5068582;28;20051;-82
2022/05/30 04:39:31;;;;;;;5.18;2.15;;;;;;;;;;5053854;28;20052;-82
2022/05/30 04:41:57;;;;;;;5.13;2.13;;;;;;;;;;5050844;28;20056;-82
2022/05/30 04:44:23;;;;;;;3.95;2.30;;;;;;;;;;5052164;28;20048;-82
2022/05/30 04:46:53;;;;;;;3.22;2.20;;;;;;;;;;5051389;28;20056;-82
2022/05/30 04:49:19;;;;;;;4.35;2.03;;;;;;;;;;5056570;28;20508;-81
2022/05/30 04:51:45;;;;;;;3.20;2.10;;;;;;;;;;5071406;28;20037;-82
2022/05/30 04:54:11;;;;;;;3.78;2.10;;;;;;;;;;5054149;28;20049;-82
2022/05/30 04:56:37;;;;;;;2.72;1.90;;;;;;;;;;5067088;28;20134;-82
2022/05/30 04:59:04;;;;;;;2.58;1.90;;;;;;;;;;5045631;28;20133;-82
2022/05/30 05:01:30;;;;;;;3.33;1.80;;;;;;;;;;5051384;28;20051;-82
2022/05/30 05:03:56;;;;;;;4.03;2.00;;;;;;;;;;5050628;28;20573;-82
2022/05/30 05:06:22;;;;;;;4.63;1.77;;;;;;;;;;5061877;28;20542;-82
2022/05/30 05:08:49;;;;;;;2.85;1.67;;;;;;;;;;5038215;28;20045;-82
2022/05/30 05:11:18;;;;;;;2.25;1.60;;;;;;;;;;5050739;28;20128;-82
2022/05/30 05:13:45;;;;;;;3.22;1.90;;;;;;;;;;5050052;28;20048;-82
2022/05/30 05:16:11;;;;;;;1.75;1.60;;;;;;;;;;5050578;28;20049;-82
2022/05/30 05:18:37;;;;;;;2.63;1.77;;;;;;;;;;5052763;28;20045;-82
2022/05/30 05:21:03;;;;;;;5.28;2.33;;;;;;;;;;5071765;28;20127;-82
2022/05/30 05:23:30;;;;;;;2.40;1.60;;;;;;;;;;5054736;28;20087;-82
2022/05/30 05:25:56;;;;;;;3.67;1.83;;;;;;;;;;5051370;28;20053;-82
2022/05/30 05:28:22;;;;;;;3.13;1.73;;;;;;;;;;5049993;28;20501;-82
2022/05/30 05:30:48;;;;;;;2.67;1.90;;;;;;;;;;5052002;28;20049;-82
2022/05/30 05:33:17;;;;;;;2.83;1.80;;;;;;;;;;5051300;28;20048;-82
2022/05/30 05:35:44;;;;;;;4.18;1.70;;;;;;;;;;5070275;28;20053;-82
2022/05/30 05:38:10;;;;;;;3.88;1.73;;;;;;;;;;5055594;28;20068;-82
2022/05/30 05:40:40;;;;;;;3.15;1.70;;;;;;;;;;5051611;28;20048;-82
2022/05/30 05:43:06;;;;;;;4.65;2.00;;;;;;;;;;5050622;28;20041;-82
2022/05/30 05:45:36;;;;;;;3.53;1.73;;;;;;;;;;5050509;28;20053;-82
2022/05/30 05:48:02;;;;;;;3.20;1.92;;;;;;;;;;5049335;28;20053;-82
2022/05/30 05:50:28;;;;;;;6.05;1.83;;;;;;;;;;5070270;28;20133;-82
2022/05/30 05:52:54;;;;;;;2.22;1.90;;;;;;;;;;5055455;28;20064;-81
2022/05/30 05:55:21;;;;;;;6.22;2.03;;;;;;;;;;5053032;28;20497;-82
2022/05/30 05:57:47;;;;;;;8.88;2.42;;;;;;;;;;5071679;28;20119;-82
2022/05/30 06:00:13;;;;;;;4.18;1.80;;;;;;;;;;5051765;28;20116;-82
2022/05/30 06:02:39;;;;;;;5.03;2.08;;;;;;;;;;5050084;28;20041;-88
2022/05/30 06:05:08;;;;;;;3.85;1.83;;;;;;;;;;5057435;28;20506;-81
2022/05/30 06:07:35;;;;;;;4.47;2.42;;;;;;;;;;5055740;28;20055;-82
2022/05/30 06:10:01;;;;;;;4.95;2.40;;;;;;;;;;5050390;28;20151;-82
2022/05/30 06:12:27;;;;;;;3.60;2.20;;;;;;;;;;5060880;28;20405;-83
2022/05/30 06:14:53;;;;;;;6.88;2.50;;;;;;;;;;5070626;28;20044;-83
2022/05/30 06:17:19;;;;;;;3.85;2.40;;;;;;;;;;5070543;28;20048;-82
2022/05/30 06:19:46;;;;;;;3.10;2.30;;;;;;;;;;5052299;28;20044;-82
2022/05/30 06:22:12;;;;;;;5.40;2.60;;;;;;;;;;5055063;28;20084;-83
2022/05/30 06:24:38;;;;;;;2.83;2.28;;;;;;;;;;5068300;28;20044;-82
2022/05/30 06:27:06;;;;;;;5.18;2.10;;;;;;;;;;5050636;28;20045;-83
2022/05/30 06:29:32;;;;;;;2.42;1.95;;;;;;;;;;5050602;28;20448;-83
2022/05/30 06:31:58;;;;;;;3.92;2.50;;;;;;;;;;5049030;28;20041;-82
2022/05/30 06:34:24;;;;;;;4.65;2.45;;;;;;;;;;5048446;28;20061;-82
2022/05/30 06:36:50;;;;;;;4.03;2.20;;;;;;;;;;5048562;28;20072;-82
2022/05/30 06:39:19;;;;;;;5.75;2.25;;;;;;;;;;5056891;28;20401;-82
2022/05/30 06:41:48;;;;;;;3.92;1.95;;;;;;;;;;5070236;28;20052;-82
2022/05/30 06:44:14;;;;;;;4.20;2.45;;;;;;;;;;5069981;28;20477;-82
2022/05/30 06:46:40;;;;;;;6.70;6.10;;;;;;;;;;5051717;28;20071;-83
2022/05/30 06:49:07;;;;;;;3.50;2.00;;;;;;;;;;5049009;28;20394;-82
2022/05/30 06:51:37;;;;;;;4.80;1.73;;;;;;;;;;5048851;28;20057;-82
2022/05/30 06:54:04;;;;;;;3.42;1.67;;;;;;;;;;5049166;28;20127;-82
2022/05/30 06:56:31;;;;;;;2.75;1.70;;;;;;;;;;5053172;28;20040;-83
2022/05/30 06:58:57;;;;;;;3.58;1.95;;;;;;;;;;5047901;28;20084;-82
2022/05/30 07:01:28;;;;;;;3.67;1.90;;;;;;;;;;5050140;28;20052;-82
2022/05/30 07:03:54;;;;;;;4.18;2.00;;;;;;;;;;5048454;28;20045;-84
2022/05/30 07:06:29;;;;;;;4.53;2.22;;;;;;;;;;5036329;28;20029;-83
2022/05/30 07:08:55;;;;;;;4.47;2.20;;;;;;;;;;5031694;28;20448;-83
2022/05/30 07:11:22;;;;;;;5.25;1.80;;;;;;;;;;5045347;28;20090;-83
2022/05/30 07:13:48;;;;;;;6.68;2.30;;;;;;;;;;5056884;28;20041;-83
2022/05/30 07:16:14;;;;;;;5.72;1.95;;;;;;;;;;5029231;28;20045;-83
2022/05/30 07:18:42;;;;;;;3.45;2.00;;;;;;;;;;5028954;28;20049;-83
2022/05/30 07:21:09;;;;;;;4.55;2.00;;;;;;;;;;5029793;28;20507;-83
2022/05/30 07:23:36;;;;;;;6.78;2.30;;;;;;;;;;5035149;28;20045;-84
2022/05/30 07:26:03;;;;;;;4.03;1.80;;;;;;;;;;5049457;28;20083;-83
2022/05/30 07:28:30;;;;;;;5.93;2.22;;;;;;;;;;5058698;28;20131;-83
2022/05/30 07:30:56;;;;;;;2.28;1.60;;;;;;;;;;5049415;28;20119;-84
2022/05/30 07:33:22;;;;;;;3.70;1.77;;;;;;;;;;5061817;28;20064;-84
2022/05/30 07:35:48;;;;;;;2.65;1.60;;;;;;;;;;5029500;28;20052;-83
2022/05/30 07:38:14;;;;;;;2.72;1.50;;;;;;;;;;5047480;28;20432;-83
2022/05/30 07:40:40;;;;;;;3.13;1.55;;;;;;;;;;5046924;28;20044;-83
2022/05/30 07:43:06;;;;;;;3.67;1.42;;;;;;;;;;5048070;28;20041;-83
2022/05/30 07:45:32;;;;;;;3.75;1.70;;;;;;;;;;5048724;28;20397;-84
2022/05/30 07:48:00;;;;;;;3.05;1.65;;;;;;;;;;5047377;28;20049;-85
2022/05/30 07:50:26;;;;;;;3.75;1.60;;;;;;;;;;5049619;28;20064;-85
2022/05/30 07:52:52;;;;;;;4.03;1.70;;;;;;;;;;5047867;28;20056;-85
2022/05/30 07:55:18;;;;;;;2.42;1.70;;;;;;;;;;5050662;28;20051;-85
2022/05/30 07:57:54;;;;;;;3.20;1.80;;;;;;;;;;5048252;28;20111;-85
2022/05/30 08:00:24;;;;;;;3.13;1.70;;;;;;;;;;5047301;28;20094;-85
2022/05/30 08:02:51;;;;;;;2.17;1.80;;;;;;;;;;5049571;28;20045;-85
2022/05/30 08:05:18;;;;;;;4.15;1.75;;;;;;;;;;5053922;28;20086;-85
2022/05/30 08:07:44;;;;;;;2.55;1.70;;;;;;;;;;5058092;28;20136;-83
2022/05/30 08:10:11;;;;;;;4.47;1.73;;;;;;;;;;5049387;28;20555;-86
2022/05/30 08:12:37;;;;;;;3.67;1.80;;;;;;;;;;5049721;28;20080;-90
2022/05/30 08:15:03;;;;;;;5.40;1.55;;;;;;;;;;5040337;28;20482;-87
2022/05/30 08:17:29;;;;;;;2.35;1.70;;;;;;;;;;5048313;28;20071;-85
2022/05/30 08:19:57;;;;;;;4.65;1.95;;;;;;;;;;5067525;28;20410;-85
2022/05/30 08:22:23;;;;;;;1.88;1.55;;;;;;;;;;5067400;28;20057;-88
2022/05/30 08:24:52;;;;;;;5.05;1.70;;;;;;;;;;5051008;28;20049;-85
2022/05/30 08:27:18;;;;;;;3.17;1.67;;;;;;;;;;5066642;28;20044;-85
2022/05/30 08:29:44;;;;;;;5.50;1.92;;;;;;;;;;5068735;28;20131;-85
2022/05/30 08:32:11;;;;;;;2.28;1.52;;;;;;;;;;5051917;28;20397;-85
2022/05/30 08:34:37;;;;;;;2.85;1.58;;;;;;;;;;5049398;28;20049;-86
2022/05/30 08:37:04;;;;;;;4.35;1.83;;;;;;;;;;5060951;28;20044;-86
2022/05/30 08:42:16;;;;;;;3.17;1.50;;;;;;;;;;5047734;28;20184;-86
2022/05/30 08:44:42;;;;;;;3.28;1.45;;;;;;;;;;5031398;28;20072;-85
2022/05/30 08:47:26;;;;;;;2.35;1.50;;;;;;;;;;5043383;28;20041;-85
2022/05/30 08:49:54;;;;;;;4.78;1.60;;;;;;;;;;5057785;28;20119;-84
2022/05/30 08:52:49;;;;;;;3.35;1.63;;;;;;;;;;5048898;28;20053;-84
2022/05/30 08:55:20;;;;;;;2.90;1.55;;;;;;;;;;5029875;28;20056;-85
2022/05/30 08:58:00;;;;;;;2.88;1.70;;;;;;;;;;5046275;28;20136;-85
2022/05/30 09:00:29;;;;;;;3.90;1.58;;;;;;;;;;5049653;28;20579;-85
2022/05/30 09:03:15;;;;;;;3.25;1.48;;;;;;;;;;5049372;28;20045;-85
2022/05/30 09:05:47;;;;;;;5.85;2.05;;;;;;;;;;5032454;28;20391;-85
2022/05/30 09:08:19;;;;;;;4.93;2.05;;;;;;;;;;5024150;28;20033;-85
2022/05/30 09:10:55;;;;;;;3.65;1.90;;;;;;;;;;5013161;28;20502;-85
2022/05/30 09:13:23;;;;;;;2.22;1.50;;;;;;;;;;5029465;28;20060;-85
2022/05/30 09:16:03;;;;;;;1.50;1.40;;;;;;;;;;5013047;28;20052;-85
2022/05/30 09:18:35;;;;;;;2.83;1.50;;;;;;;;;;5029276;28;20053;-85
2022/05/30 09:21:01;;;;;;;1.30;1.20;;;;;;;;;;5012805;28;20041;-85
2022/05/30 09:23:27;;;;;;;1.45;1.10;;;;;;;;;;5039188;28;20033;-88
2022/05/30 09:26:07;;;;;;;2.88;1.27;;;;;;;;;;5049106;28;20128;-83
2022/05/30 09:28:36;;;;;;;1.55;1.15;;;;;;;;;;5032946;28;20437;-83
2022/05/30 09:31:13;;;;;;;1.95;1.33;;;;;;;;;;5020790;28;20048;-83
2022/05/30 09:33:41;;;;;;;4.20;1.60;;;;;;;;;;5049570;28;20067;-83
2022/05/30 09:36:13;;;;;;;4.57;1.70;;;;;;;;;;5051564;28;20444;-88
2022/05/30 09:38:44;;;;;;;2.92;1.52;;;;;;;;;;5051142;28;20405;-82
2022/05/30 09:41:14;;;;;;;2.30;1.70;;;;;;;;;;5047479;28;20048;-83
2022/05/30 09:43:44;;;;;;;2.38;1.30;;;;;;;;;;5050410;28;20064;-82
2022/05/30 09:46:20;;;;;;;3.35;1.40;;;;;;;;;;5054630;28;20136;-83
2022/05/30 09:49:15;;;;;;;2.30;1.52;;;;;;;;;;5050444;28;20133;-83
2022/05/30 09:51:46;;;;;;;3.15;1.40;;;;;;;;;;5049187;28;20065;-83
2022/05/30 09:54:29;;;;;;;2.67;1.35;;;;;;;;;;5047469;28;20052;-82
2022/05/30 09:57:00;;;;;;;2.50;1.50;;;;;;;;;;5069761;28;20044;-83
2022/05/30 09:59:29;;;;;;;2.55;1.50;;;;;;;;;;5050450;28;20050;-86
2022/05/30 10:01:56;;;;;;;2.90;1.65;;;;;;;;;;5055793;28;20655;-85
2022/05/30 10:04:40;;;;;;;2.40;1.50;;;;;;;;;;5069019;28;20124;-84
2022/05/30 10:07:06;;;;;;;2.88;1.70;;;;;;;;;;5061238;28;20052;-85
2022/05/30 10:09:34;;;;;;;3.20;1.60;;;;;;;;;;5056263;28;20067;-85
2022/05/30 10:12:00;;;;;;;2.42;1.30;;;;;;;;;;5069324;28;20100;-85
2022/05/30 10:14:28;;;;;;;2.38;1.35;;;;;;;;;;5063275;28;20044;-85
2022/05/30 10:16:57;;;;;;;2.53;1.67;;;;;;;;;;5049214;28;20057;-85
2022/05/30 10:19:28;;;;;;;2.67;1.40;;;;;;;;;;5059452;28;20056;-85
2022/05/30 10:30:37;;;;;;;3.15;1.77;;;;;;;;;;5063425;28;20045;-84
2022/05/30 10:33:12;;;;;;;2.95;1.50;;;;;;;;;;5048334;28;20457;-84
2022/05/30 10:35:45;;;;;;;4.78;1.30;;;;;;;;;;5049174;28;20080;-82
2022/05/30 10:38:30;;;;;;;2.60;1.40;;;;;;;;;;5048714;28;20053;-84
2022/05/30 10:41:03;;;;;;;1.10;1.00;;;;;;;;;;5049097;28;20051;-83
2022/05/30 10:43:29;;;;;;;1.88;1.30;;;;;;;;;;5049213;28;20053;-83
2022/05/30 10:45:55;;;;;;;7.80;1.60;;;;;;;;;;5052073;28;20051;-83
2022/05/30 10:48:25;;;;;;;3.03;1.40;;;;;;;;;;5060247;28;20052;-82
2022/05/30 10:50:55;;;;;;;3.08;1.60;;;;;;;;;;5048207;28;20410;-82
2022/05/30 10:53:31;;;;;;;3.30;1.80;;;;;;;;;;5047800;28;20114;-82
2022/05/30 10:55:59;;;;;;;3.90;1.50;;;;;;;;;;5049798;28;20045;-82
2022/05/30 10:58:41;;;;;;;5.60;1.80;;;;;;;;;;5050069;28;20037;-82
2022/05/30 11:01:09;;;;;;;3.33;1.50;;;;;;;;;;5054727;28;20133;-82
2022/05/30 11:03:44;;;;;;;4.30;1.65;;;;;;;;;;5058554;28;20068;-82
2022/05/30 11:06:13;;;;;;;2.78;1.50;;;;;;;;;;5049728;28;20394;-82
2022/05/30 11:08:47;;;;;;;3.35;1.60;;;;;;;;;;5048801;28;20073;-83
2022/05/30 11:11:22;;;;;;;1.98;1.50;;;;;;;;;;5048495;28;20059;-88
2022/05/30 11:13:48;;;;;;;3.33;1.50;;;;;;;;;;5048954;28;20057;-85
2022/05/30 11:16:23;;;;;;;2.83;1.38;;;;;;;;;;5049263;28;20052;-82
2022/05/30 11:18:55;;;;;;;3.60;1.40;;;;;;;;;;5047701;28;20081;-82
2022/05/30 11:21:29;;;;;;;4.38;1.40;;;;;;;;;;5048078;28;20047;-82
2022/05/30 11:23:55;;;;;;;3.20;1.30;;;;;;;;;;5031601;28;20053;-82
2022/05/30 11:26:30;;;;;;;2.15;1.13;;;;;;;;;;5047376;28;20037;-83
2022/05/30 11:29:18;;;;;;;2.63;1.20;;;;;;;;;;5068621;28;20554;-82
2022/05/30 11:31:50;;;;;;;2.53;1.27;;;;;;;;;;5054466;28;20064;-82
2022/05/30 11:34:17;;;;;;;1.42;1.23;;;;;;;;;;5048196;28;20076;-82
2022/05/30 11:36:58;;;;;;;2.42;1.35;;;;;;;;;;5049658;28;20056;-82
2022/05/30 11:39:30;;;;;;;4.60;1.50;;;;;;;;;;5047355;28;20048;-82
2022/05/30 11:42:00;;;;;;;1.85;1.50;;;;;;;;;;5054946;28;20145;-83
2022/05/30 11:44:59;;;;;;;3.20;1.50;;;;;;;;;;5063533;28;20041;-82
2022/05/30 11:47:30;;;;;;;2.63;1.48;;;;;;;;;;5037815;28;20060;-82
2022/05/30 11:50:18;;;;;;;1.80;1.45;;;;;;;;;;5049341;28;20057;-81
2022/05/30 11:53:10;;;;;;;1.35;1.20;;;;;;;;;;5028261;28;20137;-81
2022/05/30 11:55:41;;;;;;;2.20;1.30;;;;;;;;;;5041036;28;20133;-81
2022/05/30 11:58:07;;;;;;;2.35;1.40;;;;;;;;;;5064193;28;20099;-81
2022/05/30 12:00:33;;;;;;;1.63;1.42;;;;;;;;;;5067964;28;20072;-81
2022/05/30 12:03:02;;;;;;;2.08;1.20;;;;;;;;;;5067898;28;20040;-81
2022/05/30 12:05:34;;;;;;;1.48;1.27;;;;;;;;;;5052994;28;20037;-81
2022/05/30 12:08:10;;;;;;;2.15;1.30;;;;;;;;;;5034539;28;20053;-81
2022/05/30 12:10:53;;;;;;;1.75;1.35;;;;;;;;;;5039868;28;20037;-81
2022/05/30 12:13:29;;;;;;;2.60;1.17;;;;;;;;;;5054824;28;20445;-81
2022/05/30 12:15:55;;;;;;;;;;;;;;;;;;5052065;28;20059;-81
2022/05/30 12:24:12;;;;;;;1.38;0.90;;;;;;;;;;5051777;28;20049;-81
2022/05/30 12:26:54;;;;;;;1.77;1.00;;;;;;;;;;5052792;28;20049;-82
2022/05/30 12:29:32;;;;;;;2.13;1.00;;;;;;;;;;5057169;28;20090;-81
2022/05/30 12:32:16;;;;;;;1.58;1.13;;;;;;;;;;5032555;28;20511;-81
2022/05/30 12:37:48;;;;;;;3.03;1.50;;;;;;;;;;5055562;28;20053;-81
2022/05/30 12:40:32;;;;;;;1.95;1.10;;;;;;;;;;5048788;28;20240;-81
2022/05/30 12:43:02;;;;;;;1.40;1.30;;;;;;;;;;5039312;28;20090;-81
2022/05/30 12:45:34;;;;;;;2.08;1.50;;;;;;;;;;5046364;28;20052;-81
2022/05/30 12:48:02;;;;;;;2.63;1.30;;;;;;;;;;5046156;28;20087;-81
2022/05/30 12:50:31;;;;;;;1.60;1.15;;;;;;;;;;5048778;28;20049;-81
2022/05/30 12:53:00;;;;;;;1.42;1.20;;;;;;;;;;5039920;28;20171;-81
2022/05/30 12:55:41;;;;;;;2.42;1.17;;;;;;;;;;5048965;28;20126;-81
2022/05/30 12:58:11;;;;;;;1.73;1.10;;;;;;;;;;5047459;28;20109;-81
2022/05/30 13:00:40;;;;;;;1.30;1.10;;;;;;;;;;5050958;28;20102;-81
2022/05/30 13:03:09;;;;;;;1.10;1.00;;;;;;;;;;5042613;28;20047;-81
2022/05/30 13:05:38;;;;;;;1.35;1.13;;;;;;;;;;5083633;28;20053;-81
2022/05/30 13:08:23;;;;;;;3.22;1.52;;;;;;;;;;5048739;28;20049;-81
2022/05/30 13:10:53;;;;;;;2.28;1.45;;;;;;;;;;5036967;28;20046;-81
2022/05/30 13:13:22;;;;;;;1.92;1.10;;;;;;;;;;5044778;28;20049;-81
2022/05/30 13:15:53;;;;;;;1.20;1.10;;;;;;;;;;5048197;28;20040;-85
2022/05/30 13:18:20;;;;;;;1.85;1.08;;;;;;;;;;5054582;28;20383;-80
2022/05/30 13:21:00;;;;;;;2.38;1.20;;;;;;;;;;5055452;28;20087;-81
2022/05/30 13:23:31;;;;;;;1.45;1.30;;;;;;;;;;5051479;28;20064;-87
2022/05/30 13:25:58;;;;;;;2.50;1.30;;;;;;;;;;5057395;28;20091;-81
2022/05/30 13:28:27;;;;;;;2.08;1.50;;;;;;;;;;5050465;28;20486;-81
2022/05/30 13:30:54;;;;;;;2.75;1.40;;;;;;;;;;5050297;28;20029;-81
2022/05/30 13:33:23;;;;;;;2.20;1.45;;;;;;;;;;5066458;28;20496;-81
2022/05/30 13:35:53;;;;;;;3.10;1.50;;;;;;;;;;5068081;28;20051;-82
2022/05/30 13:38:21;;;;;;;2.40;1.42;;;;;;;;;;5070387;28;20059;-81
2022/05/30 13:40:48;;;;;;;2.60;1.30;;;;;;;;;;5071115;28;20108;-82
2022/05/30 13:43:19;;;;;;;3.55;1.40;;;;;;;;;;5069551;28;20048;-82
2022/05/30 13:45:46;;;;;;;2.08;1.40;;;;;;;;;;5070359;28;20049;-82
2022/05/30 13:48:16;;;;;;;1.60;1.40;;;;;;;;;;5070983;28;20410;-82
2022/05/30 13:50:50;;;;;;;2.40;1.35;;;;;;;;;;5069168;28;20060;-82
2022/05/30 13:53:19;;;;;;;1.55;1.38;;;;;;;;;;5068797;28;20055;-84
2022/05/30 13:55:55;;;;;;;2.30;1.40;;;;;;;;;;5046786;28;20040;-88
2022/05/30 13:58:21;;;;;;;3.85;1.63;;;;;;;;;;5056707;28;20041;-83
2022/05/30 14:00:47;;;;;;;3.20;1.42;;;;;;;;;;5056786;28;20492;-83
2022/05/30 14:03:15;;;;;;;2.67;1.30;;;;;;;;;;5046983;28;20120;-83
2022/05/30 14:05:42;;;;;;;4.40;1.75;;;;;;;;;;5047580;28;20620;-83
2022/05/30 14:08:35;;;;;;;3.65;1.40;;;;;;;;;;5049083;28;20378;-83
2022/05/30 14:11:02;;;;;;;2.55;1.50;;;;;;;;;;5048234;28;20053;-83
2022/05/30 14:13:31;;;;;;;1.40;1.27;;;;;;;;;;5035427;28;20040;-83
2022/05/30 14:15:58;;;;;;;3.63;2.35;;;;;;;;;;5048814;28;20041;-83
2022/05/30 14:18:27;;;;;;;2.70;1.50;;;;;;;;;;5049599;28;20406;-83
2022/05/30 14:20:54;;;;;;;2.58;1.50;;;;;;;;;;5049088;28;20047;-83
2022/05/30 14:23:21;;;;;;;3.22;1.80;;;;;;;;;;5048940;28;20144;-83
2022/05/30 14:25:48;;;;;;;2.13;1.50;;;;;;;;;;5049874;28;20045;-83
2022/05/30 14:28:22;;;;;;;1.80;1.30;;;;;;;;;;5049115;28;20044;-83
2022/05/30 14:30:49;;;;;;;1.67;1.20;;;;;;;;;;5050000;28;20036;-83
2022/05/30 14:33:18;;;;;;;4.15;1.42;;;;;;;;;;5042434;28;20450;-82
2022/05/30 14:35:45;;;;;;;4.10;1.75;;;;;;;;;;5054329;28;20052;-83
2022/05/30 14:38:23;;;;;;;1.67;1.30;;;;;;;;;;5068126;28;20131;-83
2022/05/30 14:40:50;;;;;;;1.30;1.20;;;;;;;;;;5051414;28;20053;-83
2022/05/30 14:43:31;;;;;;;2.83;1.40;;;;;;;;;;5050827;28;20592;-86
2022/05/30 14:46:06;;;;;;;2.55;1.80;;;;;;;;;;5053493;28;20040;-86
2022/05/30 14:48:32;;;;;;;3.53;1.70;;;;;;;;;;5039893;28;20045;-85
2022/05/30 14:51:05;;;;;;;1.85;1.50;;;;;;;;;;5032599;28;20102;-84
2022/05/30 14:53:37;;;;;;;2.60;1.63;;;;;;;;;;5052677;28;20413;-84
2022/05/30 14:56:10;;;;;;;3.88;1.80;;;;;;;;;;5048663;28;20416;-85
2022/05/30 14:58:51;;;;;;;5.85;1.70;;;;;;;;;;5048961;28;20135;-84
2022/05/30 15:01:21;;;;;;;3.08;1.60;;;;;;;;;;5048737;28;20105;-85
2022/05/30 15:04:04;;;;;;;2.35;1.40;;;;;;;;;;5048955;28;20041;-85
2022/05/30 15:06:49;;;;;;;4.65;1.70;;;;;;;;;;5048685;28;20064;-85
2022/05/30 15:09:17;;;;;;;4.63;2.13;;;;;;;;;;5053470;28;20094;-84
2022/05/30 15:11:44;;;;;;;2.95;1.77;;;;;;;;;;5067881;28;20048;-96
2022/05/30 15:14:17;;;;;;;6.53;1.88;;;;;;;;;;5052680;28;20132;-88
2022/05/30 15:16:43;;;;;;;4.65;2.15;;;;;;;;;;5048741;28;20124;-88
2022/05/30 15:19:10;;;;;;;6.82;2.28;;;;;;;;;;5048406;28;20146;-88
2022/05/30 15:21:38;;;;;;;4.53;2.03;;;;;;;;;;5054180;28;20044;-88
2022/05/30 15:24:15;;;;;;;5.40;2.08;;;;;;;;;;5066028;28;20052;-88